POGODA: Poland

Lotnisko: Rzeszow-Jasionka

METAR KOD: EPRZ


METAR: EPRZ 220100Z 11004KT CAVOK 07/07 Q1003


BLOK
Pogoda METAR
220100Z
Dzien: 22, Godzina: 01:00 UTC.
11004KT
Wiatr z kierunku 110, o predkosci 7 km/h
CAVOK
Widzialnosc pow. 10 km, brak chmur pon. 1500 m., brak CB, brak opadow, burz i innych
07/07
Temperatura: powietrze 7°C, punkt rosy 7°C . Wilgotnosc wzgledna 100 %
Q1003
Cisnienie: 1003 hPa

Pogoda na innym lotnisku

Pogoda Gdansk-Rebiechowo WEATHER Poland  
Pogoda Katowice WEATHER Poland  
Pogoda Krakow WEATHER Poland  
Pogoda Poznan WEATHER Poland  
Pogoda Rzeszow-Jasionka WEATHER Poland  
Pogoda Szczecin WEATHER Poland  
Pogoda Warszawa-Okecie WEATHER Poland  
Pogoda Wroclaw Ii WEATHER Poland  

Pogoda w inny kraju

Strona startowa

(C) by GREGOR 2007
Ogłoszenia Towarzyskie